Em Athens — V7US8 — position and weather

sailwx.info

Track history (hours):
 
Tides and Currents Weather Stations Pressure Air Temp Water Temp Dewpoint Dewpoint Depression Visibility Wind Speed Wind Dir Waves Ship Positions

Em Athens

Last reported at 2015-Jul-07 19:31 UTC. Time now 2015-Jul-07 19:50 UTC.
Position N 43°34' E 010°18'.

Length 207 m; draft 8.1 m.

Type: Ship (hazmat cat C). MMSI: 538004019.

Date/timePositionNaut miles runAvg speedWind from/ knotsBaromVisibWave heightAir tempDewpointWater temp
2015-Jul-07 19:31N 43°34' E 010°18'0 0.0
2015-Jul-07 18:31N 43°34' E 010°18'0 0.0
2015-Jul-07 17:31N 43°34' E 010°18'0 0.0
2015-Jul-07 16:25N 43°34' E 010°18'0 0.0
2015-Jul-07 15:31N 43°34' E 010°18'0 0.0
2015-Jul-07 14:31N 43°34' E 010°18'0 0.0
2015-Jul-07 13:31N 43°34' E 010°18'0 0.0
2015-Jul-07 12:31N 43°34' E 010°18'0 0.0
2015-Jul-07 11:28N 43°34' E 010°18'0 0.0
2015-Jul-07 10:31N 43°34' E 010°18'0 0.0
2015-Jul-07 09:31N 43°34' E 010°18'0 0.0
2015-Jul-07 08:31N 43°34' E 010°18'0 0.0
2015-Jul-07 07:28N 43°34' E 010°18'0 0.0
2015-Jul-07 06:25N 43°34' E 010°18'3 3.4
2015-Jul-07 05:33N 43°32' E 010°16'1313.5
2015-Jul-07 04:33N 43°33' E 009°58'1616.4
2015-Jul-07 03:33N 43°44' E 009°41'8 7.5
2015-Jul-07 02:33N 43°49' E 009°33'7 6.5
2015-Jul-07 01:33N 43°53' E 009°26'1716.9
2015-Jul-07 00:34N 44°05' E 009°09'1716.7
2015-Jul-06 23:33N 44°16' E 008°52'9 9.3
2015-Jul-06 22:33N 44°25' E 008°47'0 0.0
2015-Jul-06 21:33N 44°25' E 008°47'0 0.0
2015-Jul-06 20:30N 44°25' E 008°47'0 0.0
2015-Jul-06 19:33N 44°25' E 008°47'0 0.0
2015-Jul-06 18:30N 44°25' E 008°47'0 0.0
2015-Jul-06 17:33N 44°25' E 008°47'0 0.0
2015-Jul-06 16:33N 44°25' E 008°47'0 0.0
2015-Jul-06 15:30N 44°25' E 008°47'0 0.0
2015-Jul-06 14:33N 44°25' E 008°47'0 0.0
2015-Jul-06 13:30N 44°25' E 008°47'0 0.0
2015-Jul-06 12:33N 44°25' E 008°47'0 0.0
2015-Jul-06 11:30N 44°25' E 008°47'0 0.0
2015-Jul-06 10:30N 44°25' E 008°47'0 0.0
2015-Jul-06 09:33N 44°25' E 008°47'0 0.0
2015-Jul-06 08:33N 44°25' E 008°47'0 0.0
2015-Jul-06 07:33N 44°25' E 008°47'0 0.0
2015-Jul-06 06:21N 44°25' E 008°47'0 0.0
2015-Jul-06 05:33N 44°25' E 008°47'0 0.0
2015-Jul-06 04:33N 44°25' E 008°47'0 0.2
2015-Jul-06 03:33N 44°25' E 008°47'9 9.1
2015-Jul-06 02:34N 44°16' E 008°48'7 7.5
2015-Jul-06 01:33N 44°09' E 008°53'0 0.2
2015-Jul-06 00:33N 44°09' E 008°53'0 0.2
2015-Jul-05 23:33N 44°09' E 008°53'0 0.3
2015-Jul-05 22:33N 44°09' E 008°53'0 0.4
2015-Jul-05 21:33N 44°09' E 008°54'0 0.1
2015-Jul-05 20:33N 44°09' E 008°54'1 0.6
2015-Jul-05 19:33N 44°09' E 008°55'1211.7
2015-Jul-05 18:33N 43°59' E 009°04'1716.8
2015-Jul-05 17:33N 43°45' E 009°15'1717.3
2015-Jul-05 16:33N 43°29' E 009°25'1616.4
2015-Jul-05 15:33N 43°13' E 009°33'1716.6
2015-Jul-05 14:33N 42°57' E 009°39'1717.1
2015-Jul-05 13:33N 42°41' E 009°44'1716.8
2015-Jul-05 12:33N 42°24' E 009°49'1716.7
2015-Jul-05 11:33N 42°08' E 009°51'1716.7
2015-Jul-05 10:33N 41°51' E 009°52'1615.9
2015-Jul-05 09:33N 41°35' E 009°54'1716.7
2015-Jul-05 08:33N 41°19' E 009°55'1615.8
2015-Jul-05 07:33N 41°03' E 009°56'1615.9
2015-Jul-05 06:33N 40°47' E 009°58'1616.1
2015-Jul-05 05:33N 40°31' E 009°58'6916.1
2015-Jul-05 01:17N 39°23' E 009°45'1215.8
2015-Jul-05 00:33N 39°11' E 009°43'1414.1
2015-Jul-04 23:33N 39°00' E 009°32'1515.4
2015-Jul-04 22:33N 39°05' E 009°13'1010.2
2015-Jul-04 21:33N 39°13' E 009°04'0 0.0
2015-Jul-04 20:33N 39°13' E 009°04'0 0.0
2015-Jul-04 19:33N 39°13' E 009°04'0 0.0
2015-Jul-04 18:33N 39°13' E 009°04'0 0.0
2015-Jul-04 17:30N 39°13' E 009°04'0 0.0
2015-Jul-04 11:33N 39°13' E 009°04'0 0.0
2015-Jul-04 10:33N 39°13' E 009°04'0 0.0
2015-Jul-04 09:33N 39°13' E 009°04'0 0.0
2015-Jul-04 08:06N 39°13' E 009°04'0 0.0
2015-Jul-04 07:27N 39°13' E 009°04'0 0.0
2015-Jul-04 06:30N 39°13' E 009°04'0 0.0
2015-Jul-04 05:33N 39°13' E 009°04'5 5.3
2015-Jul-04 04:33N 39°08' E 009°07'1616.4
2015-Jul-04 03:33N 38°60' E 009°25'1717.2
2015-Jul-04 02:33N 38°50' E 009°44'1717.3
2015-Jul-04 01:33N 38°40' E 010°02'1717.1
2015-Jul-04 00:33N 38°32' E 010°21'1917.3
2015-Jul-03 23:27N 38°21' E 010°41'1617.4
2015-Jul-03 22:33N 38°13' E 010°58'1817.5
2015-Jul-03 21:33N 38°03' E 011°17'1817.6
2015-Jul-03 20:30N 37°53' E 011°36'1717.6
2015-Jul-03 19:33N 37°44' E 011°54'1717.3
2015-Jul-03 18:33N 37°35' E 012°12'1817.5
2015-Jul-03 17:33N 37°25' E 012°31'1717.3
2015-Jul-03 16:33N 37°16' E 012°50'1716.7
2015-Jul-03 15:33N 37°07' E 013°07'1616.3
2015-Jul-03 14:33N 36°59' E 013°24'1615.9
2015-Jul-03 13:33N 36°50' E 013°41'1615.9
2015-Jul-03 12:33N 36°42' E 013°58'1716.6
2015-Jul-03 11:33N 36°34' E 014°16'1313.1
2015-Jul-03 10:33N 36°26' E 014°29'1716.7
2015-Jul-03 09:33N 36°24' E 014°50'1717.4
2015-Jul-03 08:33N 36°24' E 015°12'45515.5
2015-Jul-02 03:08N 37°52' E 024°31'  
2015-Jun-29 18:31N 37°44' E 025°49'1414.2
2015-Jun-29 17:34N 37°31' E 025°50'1414.2
2015-Jun-29 16:34N 37°18' E 025°58'1414.2
2015-Jun-29 15:33N 37°06' E 026°07'1414.1
2015-Jun-29 14:33N 36°54' E 026°17'  
Track history (hours):
 
Tides and Currents Weather Stations Pressure Air Temp Water Temp Dewpoint Dewpoint Depression Visibility Wind Speed Wind Dir Waves Ship Positions

Em Athens

Last reported at 2015-Jul-07 19:31 UTC. Time now 2015-Jul-07 19:50 UTC.
Position N 43°34' E 010°18'.

Length 207 m; draft 8.1 m.

Type: Ship (hazmat cat C). MMSI: 538004019.

Date/timePositionNaut miles runAvg speedWind from/ knotsBaromVisibWave heightAir tempDewpointWater temp
2015-Jul-07 19:31N 43°34' E 010°18'0 0.0
2015-Jul-07 18:31N 43°34' E 010°18'0 0.0
2015-Jul-07 17:31N 43°34' E 010°18'0 0.0
2015-Jul-07 16:25N 43°34' E 010°18'0 0.0
2015-Jul-07 15:31N 43°34' E 010°18'0 0.0
2015-Jul-07 14:31N 43°34' E 010°18'0 0.0
2015-Jul-07 13:31N 43°34' E 010°18'0 0.0
2015-Jul-07 12:31N 43°34' E 010°18'0 0.0
2015-Jul-07 11:28N 43°34' E 010°18'0 0.0
2015-Jul-07 10:31N 43°34' E 010°18'0 0.0
2015-Jul-07 09:31N 43°34' E 010°18'0 0.0
2015-Jul-07 08:31N 43°34' E 010°18'0 0.0
2015-Jul-07 07:28N 43°34' E 010°18'0 0.0
2015-Jul-07 06:25N 43°34' E 010°18'3 3.4
2015-Jul-07 05:33N 43°32' E 010°16'1313.5
2015-Jul-07 04:33N 43°33' E 009°58'1616.4
2015-Jul-07 03:33N 43°44' E 009°41'8 7.5
2015-Jul-07 02:33N 43°49' E 009°33'7 6.5
2015-Jul-07 01:33N 43°53' E 009°26'1716.9
2015-Jul-07 00:34N 44°05' E 009°09'1716.7
2015-Jul-06 23:33N 44°16' E 008°52'9 9.3
2015-Jul-06 22:33N 44°25' E 008°47'0 0.0
2015-Jul-06 21:33N 44°25' E 008°47'0 0.0
2015-Jul-06 20:30N 44°25' E 008°47'0 0.0
2015-Jul-06 19:33N 44°25' E 008°47'0 0.0
2015-Jul-06 18:30N 44°25' E 008°47'0 0.0
2015-Jul-06 17:33N 44°25' E 008°47'0 0.0
2015-Jul-06 16:33N 44°25' E 008°47'0 0.0
2015-Jul-06 15:30N 44°25' E 008°47'0 0.0
2015-Jul-06 14:33N 44°25' E 008°47'0 0.0
2015-Jul-06 13:30N 44°25' E 008°47'0 0.0
2015-Jul-06 12:33N 44°25' E 008°47'0 0.0
2015-Jul-06 11:30N 44°25' E 008°47'0 0.0
2015-Jul-06 10:30N 44°25' E 008°47'0 0.0
2015-Jul-06 09:33N 44°25' E 008°47'0 0.0
2015-Jul-06 08:33N 44°25' E 008°47'0 0.0
2015-Jul-06 07:33N 44°25' E 008°47'0 0.0
2015-Jul-06 06:21N 44°25' E 008°47'0 0.0
2015-Jul-06 05:33N 44°25' E 008°47'0 0.0
2015-Jul-06 04:33N 44°25' E 008°47'0 0.2
2015-Jul-06 03:33N 44°25' E 008°47'9 9.1
2015-Jul-06 02:34N 44°16' E 008°48'7 7.5
2015-Jul-06 01:33N 44°09' E 008°53'0 0.2
2015-Jul-06 00:33N 44°09' E 008°53'0 0.2
2015-Jul-05 23:33N 44°09' E 008°53'0 0.3
2015-Jul-05 22:33N 44°09' E 008°53'0 0.4
2015-Jul-05 21:33N 44°09' E 008°54'0 0.1
2015-Jul-05 20:33N 44°09' E 008°54'1 0.6
2015-Jul-05 19:33N 44°09' E 008°55'1211.7
2015-Jul-05 18:33N 43°59' E 009°04'1716.8
2015-Jul-05 17:33N 43°45' E 009°15'1717.3
2015-Jul-05 16:33N 43°29' E 009°25'1616.4
2015-Jul-05 15:33N 43°13' E 009°33'1716.6
2015-Jul-05 14:33N 42°57' E 009°39'1717.1
2015-Jul-05 13:33N 42°41' E 009°44'1716.8
2015-Jul-05 12:33N 42°24' E 009°49'1716.7
2015-Jul-05 11:33N 42°08' E 009°51'1716.7
2015-Jul-05 10:33N 41°51' E 009°52'1615.9
2015-Jul-05 09:33N 41°35' E 009°54'1716.7
2015-Jul-05 08:33N 41°19' E 009°55'1615.8
2015-Jul-05 07:33N 41°03' E 009°56'1615.9
2015-Jul-05 06:33N 40°47' E 009°58'1616.1
2015-Jul-05 05:33N 40°31' E 009°58'6916.1
2015-Jul-05 01:17N 39°23' E 009°45'1215.8
2015-Jul-05 00:33N 39°11' E 009°43'1414.1
2015-Jul-04 23:33N 39°00' E 009°32'1515.4
2015-Jul-04 22:33N 39°05' E 009°13'1010.2
2015-Jul-04 21:33N 39°13' E 009°04'0 0.0
2015-Jul-04 20:33N 39°13' E 009°04'0 0.0
2015-Jul-04 19:33N 39°13' E 009°04'0 0.0
2015-Jul-04 18:33N 39°13' E 009°04'0 0.0
2015-Jul-04 17:30N 39°13' E 009°04'0 0.0
2015-Jul-04 11:33N 39°13' E 009°04'0 0.0
2015-Jul-04 10:33N 39°13' E 009°04'0 0.0
2015-Jul-04 09:33N 39°13' E 009°04'0 0.0
2015-Jul-04 08:06N 39°13' E 009°04'0 0.0
2015-Jul-04 07:27N 39°13' E 009°04'0 0.0
2015-Jul-04 06:30N 39°13' E 009°04'0 0.0
2015-Jul-04 05:33N 39°13' E 009°04'5 5.3
2015-Jul-04 04:33N 39°08' E 009°07'1616.4
2015-Jul-04 03:33N 38°60' E 009°25'1717.2
2015-Jul-04 02:33N 38°50' E 009°44'1717.3
2015-Jul-04 01:33N 38°40' E 010°02'1717.1
2015-Jul-04 00:33N 38°32' E 010°21'1917.3
2015-Jul-03 23:27N 38°21' E 010°41'1617.4
2015-Jul-03 22:33N 38°13' E 010°58'1817.5
2015-Jul-03 21:33N 38°03' E 011°17'1817.6
2015-Jul-03 20:30N 37°53' E 011°36'1717.6
2015-Jul-03 19:33N 37°44' E 011°54'1717.3
2015-Jul-03 18:33N 37°35' E 012°12'1817.5
2015-Jul-03 17:33N 37°25' E 012°31'1717.3
2015-Jul-03 16:33N 37°16' E 012°50'1716.7
2015-Jul-03 15:33N 37°07' E 013°07'1616.3
2015-Jul-03 14:33N 36°59' E 013°24'1615.9
2015-Jul-03 13:33N 36°50' E 013°41'1615.9
2015-Jul-03 12:33N 36°42' E 013°58'1716.6
2015-Jul-03 11:33N 36°34' E 014°16'1313.1
2015-Jul-03 10:33N 36°26' E 014°29'1716.7
2015-Jul-03 09:33N 36°24' E 014°50'1717.4
2015-Jul-03 08:33N 36°24' E 015°12'45515.5
2015-Jul-02 03:08N 37°52' E 024°31'  
2015-Jun-29 18:31N 37°44' E 025°49'1414.2
2015-Jun-29 17:34N 37°31' E 025°50'1414.2
2015-Jun-29 16:34N 37°18' E 025°58'1414.2
2015-Jun-29 15:33N 37°06' E 026°07'1414.1
2015-Jun-29 14:33N 36°54' E 026°17'  

Dump ship's entire track history